createdAt,value
2018-06-16T00:01:06.346Z,87.00
2018-06-16T00:03:34.751Z,87.30
2018-06-16T00:06:03.234Z,88.30
2018-06-16T00:08:31.653Z,89.10
2018-06-16T00:13:28.360Z,90.20
2018-06-16T00:15:57.078Z,90.20
2018-06-16T00:18:25.495Z,90.30
2018-06-16T00:20:53.886Z,90.50
2018-06-16T00:23:22.346Z,90.50
2018-06-16T00:25:50.749Z,90.50
2018-06-16T00:28:19.276Z,90.40
2018-06-16T00:30:48.052Z,90.40
2018-06-16T00:33:16.476Z,90.50
2018-06-16T00:35:44.890Z,90.70
2018-06-16T00:38:13.285Z,90.80
2018-06-16T00:40:41.692Z,90.90
2018-06-16T00:43:10.145Z,91.10
2018-06-16T00:45:38.549Z,91.00
2018-06-16T00:48:07.292Z,90.90
2018-06-16T00:50:35.692Z,90.80
2018-06-16T00:53:04.115Z,90.70
2018-06-16T00:55:32.549Z,90.50
2018-06-16T00:58:01.751Z,90.50
2018-06-16T01:00:30.410Z,90.60
2018-06-16T01:02:58.816Z,90.50
2018-06-16T01:05:27.232Z,90.50
2018-06-16T01:07:55.672Z,90.50
2018-06-16T01:10:24.074Z,90.50
2018-06-16T01:12:52.481Z,90.60
2018-06-16T01:15:20.969Z,90.40
2018-06-16T01:17:49.444Z,90.30
2018-06-16T01:20:17.910Z,90.80
2018-06-16T01:22:46.307Z,91.50
2018-06-16T01:25:14.696Z,91.80
2018-06-16T01:27:43.146Z,91.90
2018-06-16T01:30:11.566Z,92.10
2018-06-16T01:32:40.037Z,92.40
2018-06-16T01:35:08.436Z,92.80
2018-06-16T01:37:36.854Z,92.60
2018-06-16T01:40:05.478Z,92.90
2018-06-16T01:42:33.887Z,92.90
2018-06-16T01:45:02.293Z,93.00
2018-06-16T01:47:31.741Z,93.00
2018-06-16T01:50:00.164Z,93.10
2018-06-16T01:52:28.600Z,93.30
2018-06-16T01:54:57.067Z,93.70
2018-06-16T01:57:25.657Z,93.70
2018-06-16T01:59:54.045Z,93.90
2018-06-16T02:02:22.453Z,94.40
2018-06-16T02:04:51.522Z,94.40
2018-06-16T02:07:19.932Z,94.80
2018-06-16T02:09:48.354Z,94.90
2018-06-16T02:12:16.739Z,95.10
2018-06-16T02:14:45.177Z,95.30
2018-06-16T02:17:13.611Z,95.40
2018-06-16T02:19:42.079Z,95.40
2018-06-16T02:22:10.537Z,95.60
2018-06-16T02:24:38.962Z,95.70
2018-06-16T02:27:07.797Z,95.90
2018-06-16T02:29:36.183Z,96.10
2018-06-16T02:32:04.588Z,96.40
2018-06-16T02:34:33.077Z,96.40
2018-06-16T02:37:01.512Z,96.60
2018-06-16T02:39:29.953Z,96.50
2018-06-16T02:41:58.367Z,96.50
2018-06-16T02:44:26.799Z,96.70
2018-06-16T02:46:56.448Z,96.90
2018-06-16T02:49:24.917Z,97.20
2018-06-16T02:51:53.310Z,97.20
2018-06-16T02:54:21.724Z,97.20
2018-06-16T02:56:50.234Z,97.50
2018-06-16T02:59:18.665Z,97.60
2018-06-16T03:01:47.120Z,97.70
2018-06-16T03:04:15.553Z,97.80
2018-06-16T03:06:43.984Z,98.10
2018-06-16T03:09:12.414Z,98.50
2018-06-16T03:11:40.824Z,98.50
2018-06-16T03:14:09.239Z,98.60
2018-06-16T03:16:37.661Z,98.80
2018-06-16T03:19:06.118Z,98.90
2018-06-16T03:21:34.545Z,98.70
2018-06-16T03:24:02.945Z,98.80
2018-06-16T03:26:31.480Z,98.80
2018-06-16T03:29:00.581Z,98.80
2018-06-16T03:31:28.992Z,98.90
2018-06-16T03:33:57.409Z,99.00
2018-06-16T03:36:25.885Z,99.00
2018-06-16T03:38:54.281Z,99.00
2018-06-16T03:41:22.885Z,99.10
2018-06-16T03:43:51.905Z,99.00
2018-06-16T03:46:20.309Z,99.00
2018-06-16T03:48:48.729Z,98.70
2018-06-16T03:51:17.186Z,98.70
2018-06-16T03:53:45.592Z,98.80
2018-06-16T03:56:14.046Z,98.80
2018-06-16T03:58:42.436Z,98.70
2018-06-16T04:01:10.899Z,98.70
2018-06-16T04:03:39.530Z,98.70
2018-06-16T04:06:07.964Z,98.70
2018-06-16T04:08:36.434Z,98.50
2018-06-16T04:11:04.850Z,98.50
2018-06-16T04:13:33.252Z,98.50
2018-06-16T04:16:01.937Z,98.30
2018-06-16T04:18:30.328Z,98.10
2018-06-16T04:20:58.777Z,98.00
2018-06-16T04:23:28.084Z,97.80
2018-06-16T04:25:56.477Z,97.40
2018-06-16T04:28:25.892Z,97.20
2018-06-16T04:30:54.628Z,96.90
2018-06-16T04:33:23.082Z,96.70
2018-06-16T04:35:51.501Z,96.40
2018-06-16T04:38:19.940Z,96.00
2018-06-16T04:40:48.373Z,95.60
2018-06-16T04:45:44.945Z,94.70
2018-06-16T04:48:13.327Z,94.30
2018-06-16T04:50:41.859Z,93.50
2018-06-16T04:53:10.284Z,92.80
2018-06-16T04:55:38.787Z,92.20
2018-06-16T04:58:07.321Z,91.40
2018-06-16T05:00:35.708Z,91.20
2018-06-16T05:03:04.130Z,90.70
2018-06-16T05:05:32.548Z,90.30
2018-06-16T05:08:01.011Z,90.10
2018-06-16T05:10:29.461Z,89.20
2018-06-16T05:12:57.891Z,88.60
2018-06-16T05:15:26.326Z,88.80
2018-06-16T05:17:54.734Z,88.80
2018-06-16T05:20:23.123Z,88.80
2018-06-16T05:22:51.601Z,88.00
2018-06-16T05:25:20.048Z,87.30
2018-06-16T05:27:48.525Z,86.90
2018-06-16T05:30:17.265Z,86.10
2018-06-16T05:32:45.709Z,85.10
2018-06-16T05:35:14.269Z,83.20
2018-06-16T05:37:42.721Z,81.60
2018-06-16T05:40:11.185Z,79.10
2018-06-16T05:45:07.969Z,71.40
2018-06-16T05:47:36.432Z,68.80
2018-06-16T05:50:04.906Z,65.30
2018-06-16T05:52:33.356Z,63.20
2018-06-16T05:55:02.037Z,60.50
2018-06-16T05:57:30.510Z,60.00
2018-06-16T05:59:58.981Z,59.10
2018-06-16T06:02:27.423Z,57.40
2018-06-16T06:04:55.921Z,56.20
2018-06-16T06:07:24.560Z,55.90
2018-06-16T06:12:21.085Z,55.80
2018-06-16T06:14:49.534Z,55.90
2018-06-16T06:17:18.150Z,56.20
2018-06-16T06:19:46.602Z,56.40
2018-06-16T06:22:15.025Z,56.10
2018-06-16T06:24:43.721Z,56.10
2018-06-16T06:27:12.261Z,57.10
2018-06-16T06:29:40.732Z,56.60
2018-06-16T06:32:09.203Z,55.90
2018-06-16T06:34:37.586Z,55.00
2018-06-16T06:37:06.091Z,53.60
2018-06-16T06:39:34.545Z,52.90
2018-06-16T06:42:02.933Z,52.90
2018-06-16T06:46:59.793Z,53.50
2018-06-16T06:49:28.236Z,53.80
2018-06-16T06:51:56.677Z,53.00
2018-06-16T06:54:25.119Z,52.80
2018-06-16T06:56:58.773Z,53.00
2018-06-16T06:59:27.214Z,51.90
2018-06-16T07:01:55.666Z,50.50
2018-06-16T07:04:24.063Z,49.10
2018-06-16T07:06:52.590Z,46.60
2018-06-16T07:09:21.057Z,45.20
2018-06-16T07:11:49.506Z,44.80
2018-06-16T07:14:17.952Z,42.40
2018-06-16T07:16:46.687Z,41.60
2018-06-16T07:19:15.101Z,41.80
2018-06-16T07:21:43.643Z,41.50
2018-06-16T07:24:12.132Z,41.20
2018-06-16T07:26:40.551Z,41.30
2018-06-16T07:29:09.295Z,41.90
2018-06-16T07:31:37.828Z,40.20
2018-06-16T07:34:06.261Z,38.50
2018-06-16T07:36:34.803Z,37.50
2018-06-16T07:39:03.393Z,36.20
2018-06-16T07:41:31.875Z,36.10
2018-06-16T07:44:00.364Z,35.80
2018-06-16T07:46:28.930Z,35.70
2018-06-16T07:48:57.510Z,35.20
2018-06-16T07:51:26.304Z,34.50
2018-06-16T07:53:54.878Z,33.70
2018-06-16T07:56:23.589Z,32.00
2018-06-16T07:58:52.049Z,30.50
2018-06-16T08:01:20.548Z,30.40
2018-06-16T08:03:48.944Z,30.10
2018-06-16T08:06:20.049Z,30.00
2018-06-16T08:08:48.498Z,30.60
2018-06-16T08:11:16.883Z,31.50
2018-06-16T08:13:45.296Z,30.70
2018-06-16T08:16:13.781Z,31.80
2018-06-16T08:18:42.189Z,31.30
2018-06-16T08:21:10.634Z,31.80
2018-06-16T08:23:39.341Z,31.20
2018-06-16T08:26:07.968Z,31.60
2018-06-16T08:28:36.451Z,31.50
2018-06-16T08:31:04.883Z,32.40
2018-06-16T08:36:01.405Z,32.30
2018-06-16T08:38:30.108Z,32.30
2018-06-16T08:40:58.497Z,33.00
2018-06-16T08:43:26.978Z,32.50
2018-06-16T08:45:55.398Z,33.00
2018-06-16T08:48:23.856Z,34.00
2018-06-16T08:50:52.268Z,34.50
2018-06-16T08:53:20.761Z,34.00
2018-06-16T08:55:49.216Z,33.30
2018-06-16T08:58:17.652Z,32.80
2018-06-16T09:00:46.071Z,32.20
2018-06-16T09:03:14.486Z,32.20
2018-06-16T09:05:42.930Z,32.50
2018-06-16T09:08:11.424Z,31.80
2018-06-16T09:10:39.881Z,31.50
2018-06-16T09:13:08.302Z,31.90
2018-06-16T09:15:36.825Z,31.90
2018-06-16T09:18:05.689Z,31.40
2018-06-16T09:33:38.567Z,31.90
2018-06-16T09:36:06.964Z,31.40
2018-06-16T09:38:35.488Z,31.90
2018-06-16T09:41:03.888Z,31.60
2018-06-16T09:43:32.350Z,30.00
2018-06-16T09:46:00.781Z,31.10
2018-06-16T09:48:30.030Z,30.40
2018-06-16T09:50:58.561Z,30.00
2018-06-16T09:53:26.984Z,30.10
2018-06-16T09:55:55.419Z,30.60
2018-06-16T09:58:23.828Z,31.00
2018-06-16T10:00:52.300Z,30.30
2018-06-16T10:03:20.861Z,29.90
2018-06-16T10:05:49.238Z,30.10
2018-06-16T10:08:17.708Z,29.30
2018-06-16T10:10:46.179Z,28.60
2018-06-16T10:13:14.580Z,29.00
2018-06-16T10:15:43.042Z,28.10
2018-06-16T10:18:11.466Z,27.80
2018-06-16T10:23:08.060Z,27.00
2018-06-16T10:25:36.534Z,26.50
2018-06-16T10:28:05.064Z,25.70
2018-06-16T10:30:33.488Z,25.30
2018-06-16T10:33:01.937Z,24.50
2018-06-16T10:35:30.331Z,24.40
2018-06-16T10:37:58.757Z,24.10
2018-06-16T10:40:27.280Z,23.90
2018-06-16T10:42:55.676Z,24.50
2018-06-16T10:45:24.224Z,25.10
2018-06-16T10:47:52.612Z,24.90
2018-06-16T10:50:21.096Z,25.20
2018-06-16T10:52:49.532Z,25.70
2018-06-16T10:55:17.995Z,25.50
2018-06-16T10:57:46.440Z,25.30
2018-06-16T11:00:14.917Z,25.60
2018-06-16T11:02:43.677Z,25.60
2018-06-16T11:05:12.080Z,26.10
2018-06-16T11:07:40.518Z,25.30
2018-06-16T11:10:09.231Z,25.80
2018-06-16T11:12:37.651Z,26.20
2018-06-16T11:15:06.339Z,26.50
2018-06-16T11:17:34.800Z,26.70
2018-06-16T11:20:03.292Z,26.80
2018-06-16T11:22:31.738Z,27.50
2018-06-16T11:25:00.770Z,27.80
2018-06-16T11:27:29.479Z,27.70
2018-06-16T11:29:58.066Z,28.20
2018-06-16T11:32:26.460Z,28.00
2018-06-16T11:34:54.877Z,28.10
2018-06-16T11:37:23.338Z,28.80
2018-06-16T11:39:51.801Z,28.60
2018-06-16T11:42:20.235Z,28.40
2018-06-16T11:44:48.680Z,28.90
2018-06-16T11:47:17.098Z,29.40
2018-06-16T11:49:45.584Z,29.30
2018-06-16T11:52:14.302Z,29.90
2018-06-16T11:54:42.782Z,30.00
2018-06-16T11:57:11.306Z,31.10
2018-06-16T11:59:39.751Z,31.10
2018-06-16T12:02:08.204Z,31.90
2018-06-16T12:04:36.740Z,33.10
2018-06-16T12:07:05.399Z,33.20
2018-06-16T12:09:33.835Z,32.20
2018-06-16T12:12:02.302Z,32.50
2018-06-16T12:14:30.723Z,33.40
2018-06-16T12:16:59.177Z,33.90
2018-06-16T12:19:27.622Z,33.60
2018-06-16T12:21:56.010Z,33.20
2018-06-16T12:24:24.412Z,32.50
2018-06-16T12:26:53.938Z,33.50
2018-06-16T12:29:22.371Z,32.60
2018-06-16T12:31:50.805Z,33.00
2018-06-16T12:34:20.946Z,32.90
2018-06-16T12:36:49.391Z,32.90
2018-06-16T12:39:18.019Z,32.90
2018-06-16T12:41:46.445Z,32.70
2018-06-16T12:44:14.869Z,32.30
2018-06-16T12:46:43.381Z,33.30
2018-06-16T12:49:11.787Z,33.50
2018-06-16T12:51:40.278Z,33.60
2018-06-16T12:54:08.730Z,34.00
2018-06-16T12:56:37.488Z,35.00
2018-06-16T12:59:05.973Z,35.70
2018-06-16T13:01:34.374Z,36.40
2018-06-16T13:04:02.791Z,37.10
2018-06-16T13:06:31.223Z,37.90
2018-06-16T13:08:59.687Z,38.60
2018-06-16T13:11:28.142Z,39.30
2018-06-16T13:13:56.967Z,40.50
2018-06-16T13:16:25.417Z,41.60
2018-06-16T13:18:53.867Z,42.70
2018-06-16T13:21:22.376Z,43.30
2018-06-16T13:23:50.781Z,43.50
2018-06-16T13:26:19.222Z,44.00
2018-06-16T13:28:47.677Z,44.50
2018-06-16T13:31:16.073Z,44.80
2018-06-16T13:33:44.762Z,45.40
2018-06-16T13:36:13.412Z,45.70
2018-06-16T13:38:41.924Z,46.20
2018-06-16T13:41:10.377Z,46.80
2018-06-16T13:43:39.533Z,47.20
2018-06-16T13:46:07.989Z,46.60
2018-06-16T13:48:36.601Z,46.60
2018-06-16T13:51:05.137Z,47.00
2018-06-16T13:53:33.886Z,47.30
2018-06-16T13:56:02.288Z,47.30
2018-06-16T13:58:30.809Z,46.80
2018-06-16T14:00:59.320Z,45.70
2018-06-16T14:03:27.757Z,44.90
2018-06-16T14:05:56.844Z,44.40
2018-06-16T14:08:25.355Z,43.50
2018-06-16T14:10:54.084Z,42.10
2018-06-16T14:13:22.534Z,41.50
2018-06-16T14:15:51.884Z,41.20
2018-06-16T14:18:20.338Z,40.60
2018-06-16T14:20:48.797Z,41.10
2018-06-16T14:23:17.452Z,42.20
2018-06-16T14:25:46.045Z,41.90
2018-06-16T14:28:14.445Z,41.40
2018-06-16T14:30:42.910Z,41.50
2018-06-16T14:33:11.312Z,41.80
2018-06-16T14:35:39.713Z,41.80
2018-06-16T14:38:08.333Z,42.70
2018-06-16T14:40:36.729Z,42.00
2018-06-16T14:43:05.264Z,41.30
2018-06-16T14:45:33.783Z,41.80
2018-06-16T14:48:02.332Z,41.60
2018-06-16T14:50:30.945Z,41.90
2018-06-16T14:52:59.659Z,42.70
2018-06-16T14:55:28.112Z,41.90
2018-06-16T14:57:56.491Z,41.50
2018-06-16T15:00:25.433Z,41.40
2018-06-16T15:02:53.927Z,42.10
2018-06-16T15:05:22.350Z,42.40
2018-06-16T15:07:50.797Z,42.60
2018-06-16T15:10:19.193Z,41.80
2018-06-16T15:12:47.777Z,41.90
2018-06-16T15:15:16.239Z,42.00
2018-06-16T15:17:44.882Z,41.70
2018-06-16T15:20:13.594Z,41.70
2018-06-16T15:22:42.025Z,41.70
2018-06-16T15:25:10.700Z,41.60
2018-06-16T15:27:39.117Z,41.80
2018-06-16T15:30:07.776Z,41.40
2018-06-16T15:32:36.260Z,41.50
2018-06-16T15:35:04.805Z,41.50
2018-06-16T15:37:33.236Z,41.60
2018-06-16T15:40:01.630Z,41.10
2018-06-16T15:42:30.112Z,41.70
2018-06-16T15:44:58.500Z,42.20
2018-06-16T15:47:27.032Z,42.00
2018-06-16T15:49:55.469Z,42.00
2018-06-16T15:52:24.199Z,42.50
2018-06-16T15:54:52.664Z,42.80
2018-06-16T15:57:21.080Z,42.80
2018-06-16T15:59:49.496Z,43.70
2018-06-16T16:02:17.994Z,43.60
2018-06-16T16:04:47.282Z,44.00
2018-06-16T16:07:15.700Z,44.60
2018-06-16T16:09:44.129Z,45.20
2018-06-16T16:12:12.600Z,45.70
2018-06-16T16:14:41.137Z,47.00
2018-06-16T16:17:09.629Z,48.70
2018-06-16T16:19:38.126Z,50.40
2018-06-16T16:22:07.676Z,52.60
2018-06-16T16:24:36.385Z,55.60
2018-06-16T16:27:05.032Z,57.50
2018-06-16T16:29:33.450Z,59.90
2018-06-16T16:32:02.124Z,63.40
2018-06-16T16:34:30.586Z,67.00
2018-06-16T16:36:59.072Z,69.70
2018-06-16T16:39:27.509Z,72.60
2018-06-16T16:41:55.992Z,74.40
2018-06-16T16:44:24.729Z,76.00
2018-06-16T16:46:53.324Z,75.10
2018-06-16T16:49:22.631Z,77.10
2018-06-16T16:51:51.138Z,76.40
2018-06-16T16:54:19.557Z,77.40
2018-06-16T16:56:47.978Z,77.70
2018-06-16T16:59:16.472Z,77.40
2018-06-16T17:01:44.913Z,77.90
2018-06-16T17:04:13.368Z,79.50
2018-06-16T17:06:41.799Z,80.30
2018-06-16T17:09:11.470Z,80.90
2018-06-16T17:11:39.964Z,81.40
2018-06-16T17:14:08.521Z,80.10
2018-06-16T17:16:36.987Z,79.70
2018-06-16T17:19:05.658Z,79.60
2018-06-16T17:21:34.093Z,80.70
2018-06-16T17:24:02.516Z,80.30
2018-06-16T17:26:30.957Z,79.40
2018-06-16T17:28:59.573Z,79.50
2018-06-16T17:31:28.104Z,78.20
2018-06-16T17:33:56.537Z,78.60
2018-06-16T17:36:25.010Z,79.00
2018-06-16T17:38:53.674Z,79.60
2018-06-16T17:41:22.159Z,80.00
2018-06-16T17:43:51.756Z,80.90
2018-06-16T17:46:20.578Z,80.60
2018-06-16T17:48:49.477Z,81.40
2018-06-16T17:51:18.577Z,81.50
2018-06-16T17:53:47.149Z,81.80
2018-06-16T17:56:15.597Z,83.50
2018-06-16T17:58:45.434Z,83.80
2018-06-16T18:01:13.833Z,83.40
2018-06-16T18:03:43.604Z,84.00
2018-06-16T18:06:13.757Z,83.80
2018-06-16T18:08:43.575Z,84.20
2018-06-16T18:11:13.633Z,87.60
2018-06-16T18:13:42.192Z,89.10
2018-06-16T18:16:11.696Z,91.20
2018-06-16T18:18:41.685Z,92.60
2018-06-16T18:21:10.417Z,93.80
2018-06-16T18:23:39.852Z,94.80
2018-06-16T18:26:09.653Z,96.00
2018-06-16T18:28:38.105Z,97.10
2018-06-16T18:31:06.553Z,98.30
2018-06-16T18:33:35.027Z,99.30
2018-06-16T18:36:03.469Z,99.90
2018-06-16T18:38:31.882Z,99.90
2018-06-16T18:41:00.610Z,99.90
2018-06-16T18:43:29.013Z,99.90
2018-06-16T18:45:57.613Z,99.90
2018-06-16T18:48:26.045Z,99.90
2018-06-16T18:50:54.461Z,99.90
2018-06-16T18:53:22.925Z,99.90
2018-06-16T18:55:51.432Z,99.90
2018-06-16T18:58:19.861Z,99.90
2018-06-16T19:00:48.611Z,99.90
2018-06-16T19:03:16.987Z,99.90
2018-06-16T19:05:45.505Z,99.90
2018-06-16T19:08:13.922Z,99.90
2018-06-16T19:10:42.427Z,99.90
2018-06-16T19:13:10.892Z,99.90
2018-06-16T19:15:39.323Z,99.90
2018-06-16T19:18:07.851Z,99.90
2018-06-16T19:20:36.404Z,99.90
2018-06-16T19:23:05.290Z,99.90
2018-06-16T19:25:33.632Z,99.90
2018-06-16T19:30:30.164Z,99.90
2018-06-16T19:32:58.624Z,99.90
2018-06-16T19:35:27.110Z,99.90
2018-06-16T19:37:55.533Z,99.90
2018-06-16T19:40:23.965Z,99.90
2018-06-16T19:42:52.425Z,99.90
2018-06-16T19:45:20.863Z,99.90
2018-06-16T19:47:49.357Z,99.90
2018-06-16T19:50:17.787Z,99.90
2018-06-16T19:52:46.247Z,99.90
2018-06-16T19:55:14.739Z,99.90
2018-06-16T19:57:43.217Z,99.90
2018-06-16T20:00:11.794Z,99.90
2018-06-16T20:02:40.221Z,99.90
2018-06-16T20:05:08.651Z,99.90
2018-06-16T20:07:37.101Z,99.90
2018-06-16T20:10:06.223Z,99.90
2018-06-16T20:12:34.685Z,99.90
2018-06-16T20:15:03.162Z,99.90
2018-06-16T20:17:31.737Z,99.90
2018-06-16T20:20:00.154Z,99.90
2018-06-16T20:22:28.595Z,99.90
2018-06-16T20:24:57.835Z,99.90
2018-06-16T20:29:54.690Z,99.90
2018-06-16T20:32:23.118Z,99.90
2018-06-16T20:34:51.550Z,99.90
2018-06-16T20:39:48.128Z,99.90
2018-06-16T20:42:16.559Z,99.90
2018-06-16T20:44:45.152Z,99.90
2018-06-16T20:47:13.595Z,99.90
2018-06-16T20:49:42.189Z,99.90
2018-06-16T20:52:10.654Z,99.90
2018-06-16T20:54:39.074Z,99.90
2018-06-16T20:57:07.568Z,99.90
2018-06-16T20:59:35.958Z,99.90
2018-06-16T21:02:04.556Z,99.90
2018-06-16T21:04:32.972Z,99.90
2018-06-16T21:07:01.484Z,99.90
2018-06-16T21:09:29.995Z,99.90
2018-06-16T21:11:58.490Z,99.90
2018-06-16T21:14:27.007Z,99.90
2018-06-16T21:19:24.030Z,99.90
2018-06-16T21:21:52.509Z,99.90
2018-06-16T21:24:20.925Z,99.90
2018-06-16T21:26:49.725Z,99.90
2018-06-16T21:31:46.300Z,99.90
2018-06-16T21:34:14.779Z,99.90
2018-06-16T21:36:43.330Z,99.90
2018-06-16T21:39:12.010Z,99.90
2018-06-16T21:41:40.662Z,99.90
2018-06-16T21:44:09.111Z,99.90
2018-06-16T21:46:37.585Z,99.90
2018-06-16T21:49:06.176Z,99.90
2018-06-16T21:51:34.569Z,99.90
2018-06-16T21:54:02.975Z,99.90
2018-06-16T21:56:31.510Z,99.90
2018-06-16T21:58:59.917Z,99.90
2018-06-16T22:01:33.327Z,99.90
2018-06-16T22:04:02.433Z,99.90
2018-06-16T22:06:30.942Z,99.90
2018-06-16T22:08:59.758Z,99.90
2018-06-16T22:11:28.189Z,99.90
2018-06-16T22:13:56.625Z,99.90
2018-06-16T22:16:25.073Z,99.90
2018-06-16T22:18:53.477Z,99.90
2018-06-16T22:21:21.908Z,99.90
2018-06-16T22:23:50.343Z,99.90
2018-06-16T22:26:18.782Z,99.90
2018-06-16T22:28:47.235Z,99.90
2018-06-16T22:31:15.676Z,99.90
2018-06-16T22:33:44.210Z,99.90
2018-06-16T22:36:12.640Z,99.90
2018-06-16T22:38:41.060Z,99.90
2018-06-16T22:41:09.502Z,99.90
2018-06-16T22:43:37.908Z,99.90
2018-06-16T22:46:06.592Z,99.90
2018-06-16T22:48:34.990Z,99.90
2018-06-16T22:51:03.389Z,99.90
2018-06-16T22:53:31.920Z,99.90
2018-06-16T22:56:00.357Z,99.90
2018-06-16T22:58:28.862Z,99.90
2018-06-16T23:00:57.305Z,99.90
2018-06-16T23:03:25.783Z,99.90
2018-06-16T23:05:54.224Z,99.90
2018-06-16T23:08:22.650Z,99.90
2018-06-16T23:10:51.115Z,99.90
2018-06-16T23:13:19.593Z,99.90
2018-06-16T23:15:48.237Z,99.90
2018-06-16T23:18:16.678Z,99.90
2018-06-16T23:20:45.743Z,99.90
2018-06-16T23:23:14.290Z,99.90
2018-06-16T23:25:42.708Z,99.90
2018-06-16T23:28:11.154Z,99.90
2018-06-16T23:30:39.640Z,99.90
2018-06-16T23:33:08.039Z,99.90
2018-06-16T23:35:36.428Z,99.90
2018-06-16T23:38:04.856Z,99.90
2018-06-16T23:40:33.273Z,99.90
2018-06-16T23:43:01.763Z,99.90
2018-06-16T23:45:30.274Z,99.90
2018-06-16T23:47:58.820Z,99.90
2018-06-16T23:50:27.216Z,99.90
2018-06-16T23:52:55.940Z,99.90
2018-06-16T23:55:24.352Z,99.90
2018-06-16T23:57:52.788Z,99.90
